createdAt,value
2023-12-29T00:11:47.288Z,10.63
2023-12-29T00:26:48.029Z,10.66
2023-12-29T00:41:48.555Z,16.14
2023-12-29T00:56:49.170Z,20.52
2023-12-29T01:11:49.742Z,35.57
2023-12-29T01:26:50.613Z,52.29
2023-12-29T01:41:51.162Z,45.27
2023-12-29T01:56:51.858Z,40.24
2023-12-29T02:11:52.471Z,28.76
2023-12-29T02:26:53.029Z,3.93
2023-12-29T02:41:53.596Z,1.98
2023-12-29T02:56:54.373Z,0.47
2023-12-29T03:11:54.930Z,0.86
2023-12-29T03:26:55.505Z,2.10
2023-12-29T03:41:56.065Z,2.16
2023-12-29T03:56:56.694Z,5.45
2023-12-29T04:11:57.414Z,2.18
2023-12-29T04:26:58.012Z,2.48
2023-12-29T04:41:58.567Z,0.36
2023-12-29T04:56:59.186Z,0.31
2023-12-29T05:11:59.601Z,0.16
2023-12-29T05:27:00.152Z,0.38
2023-12-29T05:42:00.805Z,1.05
2023-12-29T05:57:01.351Z,0.27
2023-12-29T06:12:01.851Z,0.67
2023-12-29T06:27:02.452Z,2.66
2023-12-29T06:42:02.986Z,1.57
2023-12-29T06:57:03.576Z,3.39
2023-12-29T07:12:04.265Z,9.68
2023-12-29T07:27:04.883Z,11.24
2023-12-29T07:42:06.645Z,10.47
2023-12-29T07:57:05.803Z,7.28
2023-12-29T08:12:06.329Z,16.20
2023-12-29T08:27:06.835Z,30.28
2023-12-29T08:42:07.905Z,41.29
2023-12-29T08:57:08.479Z,22.27
2023-12-29T09:12:08.929Z,4.98
2023-12-29T09:27:09.468Z,6.58
2023-12-29T09:42:09.798Z,2.28
2023-12-29T09:57:10.575Z,2.64
2023-12-29T10:12:11.130Z,3.32
2023-12-29T10:27:11.692Z,4.75
2023-12-29T10:42:13.902Z,3.39
2023-12-29T10:57:12.868Z,1.70
2023-12-29T11:12:13.417Z,5.57
2023-12-29T11:27:14.158Z,3.37
2023-12-29T11:42:14.695Z,0.95
2023-12-29T11:57:15.234Z,0.84
2023-12-29T12:12:15.949Z,1000.00
2023-12-29T12:27:16.509Z,0.64
2023-12-29T12:42:16.855Z,0.62
2023-12-29T12:57:17.544Z,1.02
2023-12-29T13:12:17.968Z,1.25
2023-12-29T13:27:18.537Z,2.46
2023-12-29T13:42:19.007Z,1.16
2023-12-29T13:57:21.423Z,3.59
2023-12-29T14:12:20.368Z,3.55
2023-12-29T14:27:20.942Z,1.96
2023-12-29T14:42:21.403Z,56.90
2023-12-29T14:57:22.252Z,8.22
2023-12-29T15:12:22.334Z,16.96
2023-12-29T15:27:23.088Z,91.68
2023-12-29T15:42:23.631Z,275.57
2023-12-29T15:57:24.213Z,458.74
2023-12-29T16:12:24.748Z,546.32
2023-12-29T16:27:25.306Z,721.88
2023-12-29T16:42:25.857Z,1000.00
2023-12-29T16:57:26.607Z,1000.00
2023-12-29T17:12:27.161Z,1000.00
2023-12-29T17:27:29.082Z,1000.00
2023-12-29T17:42:28.818Z,1000.00
2023-12-29T17:57:29.405Z,1000.00
2023-12-29T18:12:29.935Z,1000.00
2023-12-29T18:27:30.685Z,1000.00
2023-12-29T18:42:31.250Z,1000.00
2023-12-29T18:57:31.854Z,1000.00
2023-12-29T19:12:32.443Z,1000.00
2023-12-29T19:27:32.996Z,1000.00
2023-12-29T19:42:33.707Z,1000.00
2023-12-29T19:57:34.284Z,1000.00
2023-12-29T20:12:34.888Z,1000.00
2023-12-29T20:27:35.460Z,1000.00
2023-12-29T20:42:36.132Z,1000.00
2023-12-29T20:57:36.812Z,1000.00
2023-12-29T21:12:37.543Z,767.49
2023-12-29T21:27:38.136Z,211.15
2023-12-29T21:42:38.698Z,138.69
2023-12-29T21:57:39.298Z,125.93
2023-12-29T22:12:39.848Z,150.27
2023-12-29T22:27:40.443Z,373.36
2023-12-29T22:42:41.157Z,461.38
2023-12-29T22:57:41.770Z,1000.00
2023-12-29T23:12:42.417Z,1000.00
2023-12-29T23:27:42.983Z,1000.00
2023-12-29T23:42:43.560Z,1000.00
2023-12-29T23:57:44.398Z,1000.00
